sensor_id;sensor_type;location;lat;lon;timestamp;pressure;altitude;pressure_sealevel;temperature;humidity
20889;BME280;10604;51.976;7.594;2023-04-21T00:01:57;100718.72;;;12.69;71.55
20889;BME280;10604;51.976;7.594;2023-04-21T00:04:23;100718.47;;;12.75;72.04
20889;BME280;10604;51.976;7.594;2023-04-21T00:06:48;100713.19;;;12.75;72.56
20889;BME280;10604;51.976;7.594;2023-04-21T00:09:14;100701.06;;;12.91;72.08
20889;BME280;10604;51.976;7.594;2023-04-21T00:11:39;100696.84;;;12.86;71.70
20889;BME280;10604;51.976;7.594;2023-04-21T00:14:05;100703.97;;;12.85;71.91
20889;BME280;10604;51.976;7.594;2023-04-21T00:16:30;100696.84;;;12.86;72.26
20889;BME280;10604;51.976;7.594;2023-04-21T00:18:55;100702.22;;;13.06;71.93
20889;BME280;10604;51.976;7.594;2023-04-21T00:21:21;100698.50;;;13.10;71.56
20889;BME280;10604;51.976;7.594;2023-04-21T00:23:46;100697.91;;;13.04;72.37
20889;BME280;10604;51.976;7.594;2023-04-21T00:26:11;100694.66;;;13.19;72.11
20889;BME280;10604;51.976;7.594;2023-04-21T00:28:37;100688.91;;;13.08;72.27
20889;BME280;10604;51.976;7.594;2023-04-21T00:31:02;100681.69;;;13.13;72.20
20889;BME280;10604;51.976;7.594;2023-04-21T00:33:27;100691.03;;;13.21;71.91
20889;BME280;10604;51.976;7.594;2023-04-21T00:35:52;100689.56;;;13.14;72.67
20889;BME280;10604;51.976;7.594;2023-04-21T00:38:18;100690.69;;;13.29;71.81
20889;BME280;10604;51.976;7.594;2023-04-21T00:40:43;100682.09;;;13.44;71.88
20889;BME280;10604;51.976;7.594;2023-04-21T00:43:09;100680.38;;;13.43;72.01
20889;BME280;10604;51.976;7.594;2023-04-21T00:45:34;100684.47;;;13.30;72.37
20889;BME280;10604;51.976;7.594;2023-04-21T00:48:00;100686.72;;;13.19;72.41
20889;BME280;10604;51.976;7.594;2023-04-21T00:50:25;100676.53;;;13.30;71.63
20889;BME280;10604;51.976;7.594;2023-04-21T00:52:50;100679.69;;;13.18;72.98
20889;BME280;10604;51.976;7.594;2023-04-21T00:55:16;100677.34;;;13.32;72.11
20889;BME280;10604;51.976;7.594;2023-04-21T00:57:41;100678.09;;;13.36;72.11
20889;BME280;10604;51.976;7.594;2023-04-21T01:00:07;100685.91;;;13.17;73.40
20889;BME280;10604;51.976;7.594;2023-04-21T01:02:34;100676.19;;;13.38;72.33
20889;BME280;10604;51.976;7.594;2023-04-21T01:05:00;100684.47;;;13.30;72.67
20889;BME280;10604;51.976;7.594;2023-04-21T01:07:25;100686.47;;;13.25;72.93
20889;BME280;10604;51.976;7.594;2023-04-21T01:09:50;100687.94;;;13.32;72.87
20889;BME280;10604;51.976;7.594;2023-04-21T01:12:16;100696.00;;;13.29;72.83
20889;BME280;10604;51.976;7.594;2023-04-21T01:14:41;100689.50;;;13.36;72.55
20889;BME280;10604;51.976;7.594;2023-04-21T01:17:06;100697.88;;;13.47;72.13
20889;BME280;10604;51.976;7.594;2023-04-21T01:19:33;100705.13;;;13.64;72.20
20889;BME280;10604;51.976;7.594;2023-04-21T01:22:00;100699.88;;;13.62;71.63
20889;BME280;10604;51.976;7.594;2023-04-21T01:24:39;100701.19;;;13.52;71.96
20889;BME280;10604;51.976;7.594;2023-04-21T01:27:14;100702.00;;;13.54;72.00
20889;BME280;10604;51.976;7.594;2023-04-21T01:29:41;100704.63;;;13.54;71.82
20889;BME280;10604;51.976;7.594;2023-04-21T01:32:09;100711.88;;;13.71;71.41
20889;BME280;10604;51.976;7.594;2023-04-21T01:34:36;100705.56;;;13.53;71.79
20889;BME280;10604;51.976;7.594;2023-04-21T01:37:01;100716.56;;;13.64;71.81
20889;BME280;10604;51.976;7.594;2023-04-21T01:39:26;100711.53;;;13.58;71.96
20889;BME280;10604;51.976;7.594;2023-04-21T01:41:52;100716.31;;;13.70;72.17
20889;BME280;10604;51.976;7.594;2023-04-21T01:44:19;100713.41;;;13.77;71.18
20889;BME280;10604;51.976;7.594;2023-04-21T01:46:44;100708.19;;;13.94;70.80
20889;BME280;10604;51.976;7.594;2023-04-21T01:49:10;100717.34;;;13.87;70.17
20889;BME280;10604;51.976;7.594;2023-04-21T01:51:35;100720.69;;;13.92;70.42
20889;BME280;10604;51.976;7.594;2023-04-21T01:54:00;100712.31;;;13.81;71.18
20889;BME280;10604;51.976;7.594;2023-04-21T01:56:25;100702.88;;;13.94;70.52
20889;BME280;10604;51.976;7.594;2023-04-21T01:58:51;100709.88;;;13.76;71.05
20889;BME280;10604;51.976;7.594;2023-04-21T02:01:17;100709.34;;;13.68;70.75
20889;BME280;10604;51.976;7.594;2023-04-21T02:03:42;100711.78;;;13.72;71.06
20889;BME280;10604;51.976;7.594;2023-04-21T02:06:08;100697.44;;;13.78;70.95
20889;BME280;10604;51.976;7.594;2023-04-21T02:08:33;100705.44;;;13.77;71.33
20889;BME280;10604;51.976;7.594;2023-04-21T02:11:00;100708.38;;;13.70;71.58
20889;BME280;10604;51.976;7.594;2023-04-21T02:13:25;100712.59;;;13.75;71.28
20889;BME280;10604;51.976;7.594;2023-04-21T02:15:50;100703.56;;;13.79;71.06
20889;BME280;10604;51.976;7.594;2023-04-21T02:18:16;100701.00;;;13.77;71.33
20889;BME280;10604;51.976;7.594;2023-04-21T02:20:41;100707.28;;;13.75;71.43
20889;BME280;10604;51.976;7.594;2023-04-21T02:23:07;100710.06;;;13.71;71.28
20889;BME280;10604;51.976;7.594;2023-04-21T02:25:32;100708.94;;;13.77;71.53
20889;BME280;10604;51.976;7.594;2023-04-21T02:27:57;100705.44;;;13.77;71.47
20889;BME280;10604;51.976;7.594;2023-04-21T02:30:22;100714.84;;;13.63;71.77
20889;BME280;10604;51.976;7.594;2023-04-21T02:32:48;100709.00;;;13.76;71.43
20889;BME280;10604;51.976;7.594;2023-04-21T02:35:13;100707.81;;;13.62;71.84
20889;BME280;10604;51.976;7.594;2023-04-21T02:37:38;100711.41;;;13.61;71.47
20889;BME280;10604;51.976;7.594;2023-04-21T02:40:04;100713.78;;;13.67;71.52
20889;BME280;10604;51.976;7.594;2023-04-21T02:42:31;100703.56;;;13.79;70.90
20889;BME280;10604;51.976;7.594;2023-04-21T02:44:56;100707.00;;;13.81;71.06
20889;BME280;10604;51.976;7.594;2023-04-21T02:47:21;100704.63;;;13.75;71.57
20889;BME280;10604;51.976;7.594;2023-04-21T02:49:47;100711.41;;;13.61;71.39
20889;BME280;10604;51.976;7.594;2023-04-21T02:52:12;100718.00;;;13.71;71.59
20889;BME280;10604;51.976;7.594;2023-04-21T02:54:37;100708.75;;;13.82;70.67
20889;BME280;10604;51.976;7.594;2023-04-21T02:57:03;100707.00;;;13.81;70.64
20889;BME280;10604;51.976;7.594;2023-04-21T02:59:28;100721.19;;;13.80;70.82
20889;BME280;10604;51.976;7.594;2023-04-21T03:01:53;100716.97;;;13.76;71.33
20889;BME280;10604;51.976;7.594;2023-04-21T03:04:18;100714.72;;;13.66;71.76
20889;BME280;10604;51.976;7.594;2023-04-21T03:06:44;100713.25;;;13.80;71.03
20889;BME280;10604;51.976;7.594;2023-04-21T03:09:09;100712.97;;;13.65;71.33
20889;BME280;10604;51.976;7.594;2023-04-21T03:11:34;100708.63;;;13.85;71.01
20889;BME280;10604;51.976;7.594;2023-04-21T03:14:00;100718.16;;;13.68;70.72
20889;BME280;10604;51.976;7.594;2023-04-21T03:16:25;100710.19;;;13.89;70.56
20889;BME280;10604;51.976;7.594;2023-04-21T03:18:50;100714.22;;;13.97;70.45
20889;BME280;10604;51.976;7.594;2023-04-21T03:21:15;100714.16;;;13.79;71.22
20889;BME280;10604;51.976;7.594;2023-04-21T03:23:41;100705.75;;;13.89;71.00
20889;BME280;10604;51.976;7.594;2023-04-21T03:26:06;100708.06;;;13.97;70.81
20889;BME280;10604;51.976;7.594;2023-04-21T03:28:32;100708.47;;;13.88;70.48
20889;BME280;10604;51.976;7.594;2023-04-21T03:30:57;100708.78;;;14.00;70.28
20889;BME280;10604;51.976;7.594;2023-04-21T03:33:22;100710.84;;;13.73;70.95
20889;BME280;10604;51.976;7.594;2023-04-21T03:35:47;100699.97;;;13.80;70.96
20889;BME280;10604;51.976;7.594;2023-04-21T03:38:13;100707.41;;;13.92;70.77
20889;BME280;10604;51.976;7.594;2023-04-21T03:40:38;100700.06;;;13.98;70.44
20889;BME280;10604;51.976;7.594;2023-04-21T03:43:03;100696.88;;;13.90;70.59
20889;BME280;10604;51.976;7.594;2023-04-21T03:45:28;100703.31;;;13.85;71.14
20889;BME280;10604;51.976;7.594;2023-04-21T03:47:56;100702.97;;;13.72;70.64
20889;BME280;10604;51.976;7.594;2023-04-21T03:50:22;100704.41;;;13.79;70.63
20889;BME280;10604;51.976;7.594;2023-04-21T03:52:47;100697.84;;;13.88;70.00
20889;BME280;10604;51.976;7.594;2023-04-21T03:55:12;100697.53;;;13.95;70.36
20889;BME280;10604;51.976;7.594;2023-04-21T03:57:41;100693.41;;;13.88;70.33
20889;BME280;10604;51.976;7.594;2023-04-21T04:00:07;100693.44;;;14.07;69.81
20889;BME280;10604;51.976;7.594;2023-04-21T04:02:34;100696.59;;;13.96;70.04
20889;BME280;10604;51.976;7.594;2023-04-21T04:05:01;100692.16;;;13.97;69.99
20889;BME280;10604;51.976;7.594;2023-04-21T04:07:26;100681.59;;;13.77;70.66
20889;BME280;10604;51.976;7.594;2023-04-21T04:09:51;100692.56;;;13.67;71.13
20889;BME280;10604;51.976;7.594;2023-04-21T04:12:16;100682.50;;;13.76;71.24
20889;BME280;10604;51.976;7.594;2023-04-21T04:14:42;100683.81;;;13.86;70.92
20889;BME280;10604;51.976;7.594;2023-04-21T04:17:07;100675.88;;;13.65;70.97
20889;BME280;10604;51.976;7.594;2023-04-21T04:19:32;100680.78;;;13.75;71.16
20889;BME280;10604;51.976;7.594;2023-04-21T04:21:58;100680.78;;;13.75;71.22
20889;BME280;10604;51.976;7.594;2023-04-21T04:24:24;100680.78;;;13.54;71.63
20889;BME280;10604;51.976;7.594;2023-04-21T04:26:51;100674.28;;;13.61;71.38
20889;BME280;10604;51.976;7.594;2023-04-21T04:29:17;100671.84;;;13.57;71.69
20889;BME280;10604;51.976;7.594;2023-04-21T04:31:43;100674.81;;;13.69;71.08
20889;BME280;10604;51.976;7.594;2023-04-21T04:34:08;100664.31;;;13.87;70.94
20889;BME280;10604;51.976;7.594;2023-04-21T04:36:33;100669.31;;;13.74;70.65
20889;BME280;10604;51.976;7.594;2023-04-21T04:38:58;100663.59;;;13.83;71.15
20889;BME280;10604;51.976;7.594;2023-04-21T04:41:24;100668.59;;;13.70;70.60
20889;BME280;10604;51.976;7.594;2023-04-21T04:43:49;100663.31;;;13.70;70.96
20889;BME280;10604;51.976;7.594;2023-04-21T04:46:15;100677.72;;;13.84;70.97
20889;BME280;10604;51.976;7.594;2023-04-21T04:48:41;100672.94;;;13.92;70.55
20889;BME280;10604;51.976;7.594;2023-04-21T04:51:06;100673.59;;;13.97;70.05
20889;BME280;10604;51.976;7.594;2023-04-21T04:53:31;100679.66;;;14.19;69.51
20889;BME280;10604;51.976;7.594;2023-04-21T04:56:00;100684.16;;;14.17;69.52
20889;BME280;10604;51.976;7.594;2023-04-21T04:58:25;100681.63;;;14.14;69.51
20889;BME280;10604;51.976;7.594;2023-04-21T05:00:50;100681.84;;;14.28;69.07
20889;BME280;10604;51.976;7.594;2023-04-21T05:03:15;100679.13;;;14.11;69.48
20889;BME280;10604;51.976;7.594;2023-04-21T05:05:41;100684.09;;;14.19;69.40
20889;BME280;10604;51.976;7.594;2023-04-21T05:08:06;100686.91;;;14.34;69.52
20889;BME280;10604;51.976;7.594;2023-04-21T05:10:31;100689.06;;;14.26;69.33
20889;BME280;10604;51.976;7.594;2023-04-21T05:12:57;100680.06;;;14.10;69.31
20889;BME280;10604;51.976;7.594;2023-04-21T05:15:22;100684.56;;;14.08;69.44
20889;BME280;10604;51.976;7.594;2023-04-21T05:17:47;100687.78;;;14.35;69.34
20889;BME280;10604;51.976;7.594;2023-04-21T05:20:12;100688.03;;;14.10;69.37
20889;BME280;10604;51.976;7.594;2023-04-21T05:22:38;100682.59;;;14.13;69.31
20889;BME280;10604;51.976;7.594;2023-04-21T05:25:03;100686.00;;;14.15;69.38
20889;BME280;10604;51.976;7.594;2023-04-21T05:27:29;100697.53;;;14.34;69.12
20889;BME280;10604;51.976;7.594;2023-04-21T05:29:54;100709.44;;;14.44;68.89
20889;BME280;10604;51.976;7.594;2023-04-21T05:32:20;100708.75;;;14.41;68.76
20889;BME280;10604;51.976;7.594;2023-04-21T05:34:45;100707.16;;;14.56;68.41
20889;BME280;10604;51.976;7.594;2023-04-21T05:37:10;100715.78;;;14.61;68.26
20889;BME280;10604;51.976;7.594;2023-04-21T05:39:36;100721.66;;;14.67;68.18
20889;BME280;10604;51.976;7.594;2023-04-21T05:42:01;100718.06;;;14.68;68.07
20889;BME280;10604;51.976;7.594;2023-04-21T05:44:27;100719.19;;;14.81;67.90
20889;BME280;10604;51.976;7.594;2023-04-21T05:46:52;100722.09;;;14.77;67.79
20889;BME280;10604;51.976;7.594;2023-04-21T05:49:17;100729.25;;;14.75;67.62
20889;BME280;10604;51.976;7.594;2023-04-21T05:51:43;100721.06;;;14.61;67.96
20889;BME280;10604;51.976;7.594;2023-04-21T05:54:08;100726.69;;;14.55;67.94
20889;BME280;10604;51.976;7.594;2023-04-21T05:56:33;100737.00;;;14.61;67.92
20889;BME280;10604;51.976;7.594;2023-04-21T05:58:58;100722.72;;;14.44;68.42
20889;BME280;10604;51.976;7.594;2023-04-21T06:01:24;100726.22;;;14.64;67.81
20889;BME280;10604;51.976;7.594;2023-04-21T06:03:49;100725.38;;;14.82;67.36
20889;BME280;10604;51.976;7.594;2023-04-21T06:06:14;100725.88;;;14.71;67.64
20889;BME280;10604;51.976;7.594;2023-04-21T06:08:40;100728.97;;;14.81;67.74
20889;BME280;10604;51.976;7.594;2023-04-21T06:11:05;100720.91;;;14.64;67.43
20889;BME280;10604;51.976;7.594;2023-04-21T06:13:30;100718.66;;;14.56;67.43
20889;BME280;10604;51.976;7.594;2023-04-21T06:15:56;100718.94;;;14.69;67.30
20889;BME280;10604;51.976;7.594;2023-04-21T06:18:21;100709.28;;;14.85;67.32
20889;BME280;10604;51.976;7.594;2023-04-21T06:20:53;100715.75;;;14.98;66.63
20889;BME280;10604;51.976;7.594;2023-04-21T06:23:18;100710.88;;;14.89;66.20
20889;BME280;10604;51.976;7.594;2023-04-21T06:25:44;100717.78;;;15.10;66.06
20889;BME280;10604;51.976;7.594;2023-04-21T06:28:09;100707.09;;;15.12;65.93
20889;BME280;10604;51.976;7.594;2023-04-21T06:30:34;100712.97;;;15.18;65.58
20889;BME280;10604;51.976;7.594;2023-04-21T06:33:00;100713.16;;;15.14;65.91
20889;BME280;10604;51.976;7.594;2023-04-21T06:35:25;100710.78;;;15.26;65.42
20889;BME280;10604;51.976;7.594;2023-04-21T06:37:50;100713.53;;;15.06;65.23
20889;BME280;10604;51.976;7.594;2023-04-21T06:40:16;100712.03;;;15.37;64.99
20889;BME280;10604;51.976;7.594;2023-04-21T06:42:41;100710.38;;;15.70;64.92
20889;BME280;10604;51.976;7.594;2023-04-21T06:45:07;100710.06;;;15.76;64.41
20889;BME280;10604;51.976;7.594;2023-04-21T06:47:32;100701.34;;;15.90;63.70
20889;BME280;10604;51.976;7.594;2023-04-21T06:49:57;100703.41;;;16.00;63.14
20889;BME280;10604;51.976;7.594;2023-04-21T06:52:23;100699.22;;;15.79;63.34
20889;BME280;10604;51.976;7.594;2023-04-21T06:54:48;100700.63;;;15.86;63.24
20889;BME280;10604;51.976;7.594;2023-04-21T06:57:13;100690.44;;;15.94;63.14
20889;BME280;10604;51.976;7.594;2023-04-21T06:59:39;100705.31;;;15.98;63.37
20889;BME280;10604;51.976;7.594;2023-04-21T07:02:04;100705.16;;;16.01;63.31
20889;BME280;10604;51.976;7.594;2023-04-21T07:04:30;100709.53;;;16.02;62.36
20889;BME280;10604;51.976;7.594;2023-04-21T07:06:56;100704.66;;;16.11;62.51
20889;BME280;10604;51.976;7.594;2023-04-21T07:09:21;100696.16;;;16.04;62.40
20889;BME280;10604;51.976;7.594;2023-04-21T07:11:46;100697.59;;;16.42;61.49
20889;BME280;10604;51.976;7.594;2023-04-21T07:14:12;100693.00;;;16.29;61.21
20889;BME280;10604;51.976;7.594;2023-04-21T07:16:37;100688.50;;;15.98;61.51
20889;BME280;10604;51.976;7.594;2023-04-21T07:19:02;100700.41;;;16.24;61.11
20889;BME280;10604;51.976;7.594;2023-04-21T07:21:28;100689.63;;;16.58;61.24
20889;BME280;10604;51.976;7.594;2023-04-21T07:23:56;100692.78;;;16.49;60.76
20889;BME280;10604;51.976;7.594;2023-04-21T07:26:21;100693.38;;;16.38;61.41
20889;BME280;10604;51.976;7.594;2023-04-21T07:28:46;100698.44;;;16.43;61.03
20889;BME280;10604;51.976;7.594;2023-04-21T07:31:11;100699.44;;;16.89;60.45
20889;BME280;10604;51.976;7.594;2023-04-21T07:33:37;100691.69;;;16.84;60.06
20889;BME280;10604;51.976;7.594;2023-04-21T07:36:02;100690.47;;;17.06;59.84
20889;BME280;10604;51.976;7.594;2023-04-21T07:38:27;100691.63;;;16.86;59.73
20889;BME280;10604;51.976;7.594;2023-04-21T07:40:52;100684.97;;;17.09;59.99
20889;BME280;10604;51.976;7.594;2023-04-21T07:43:18;100687.47;;;17.42;58.99
20889;BME280;10604;51.976;7.594;2023-04-21T07:45:44;100688.47;;;17.99;57.48
20889;BME280;10604;51.976;7.594;2023-04-21T07:48:09;100684.75;;;18.30;56.16
20889;BME280;10604;51.976;7.594;2023-04-21T07:50:35;100695.91;;;18.36;56.07
20889;BME280;10604;51.976;7.594;2023-04-21T07:53:00;100689.06;;;18.32;55.77
20889;BME280;10604;51.976;7.594;2023-04-21T07:55:26;100688.94;;;18.62;55.06
20889;BME280;10604;51.976;7.594;2023-04-21T07:57:51;100679.09;;;18.49;54.86
20889;BME280;10604;51.976;7.594;2023-04-21T08:00:16;100683.69;;;18.47;54.99
20889;BME280;10604;51.976;7.594;2023-04-21T08:02:42;100685.13;;;18.38;54.63
20889;BME280;10604;51.976;7.594;2023-04-21T08:05:07;100677.19;;;18.65;54.00
20889;BME280;10604;51.976;7.594;2023-04-21T08:07:32;100683.97;;;18.97;53.58
20889;BME280;10604;51.976;7.594;2023-04-21T08:09:57;100686.22;;;19.30;52.78
20889;BME280;10604;51.976;7.594;2023-04-21T08:12:24;100673.06;;;19.79;51.73
20889;BME280;10604;51.976;7.594;2023-04-21T08:14:49;100665.56;;;19.84;50.51
20889;BME280;10604;51.976;7.594;2023-04-21T08:17:14;100677.38;;;19.94;50.80
20889;BME280;10604;51.976;7.594;2023-04-21T08:19:40;100669.00;;;19.99;50.12
20889;BME280;10604;51.976;7.594;2023-04-21T08:22:08;100680.13;;;20.18;49.37
20889;BME280;10604;51.976;7.594;2023-04-21T08:24:33;100675.00;;;20.15;49.63
20889;BME280;10604;51.976;7.594;2023-04-21T08:26:59;100671.56;;;19.75;49.37
20889;BME280;10604;51.976;7.594;2023-04-21T08:29:26;100675.41;;;20.35;50.08
20889;BME280;10604;51.976;7.594;2023-04-21T08:31:51;100684.19;;;20.86;48.14
20889;BME280;10604;51.976;7.594;2023-04-21T08:34:16;100679.09;;;19.96;48.93
20889;BME280;10604;51.976;7.594;2023-04-21T08:36:43;100681.75;;;20.08;48.96
20889;BME280;10604;51.976;7.594;2023-04-21T08:39:10;100679.66;;;19.61;49.98
20889;BME280;10604;51.976;7.594;2023-04-21T08:41:37;100684.63;;;19.67;50.81
20889;BME280;10604;51.976;7.594;2023-04-21T08:44:03;100678.41;;;19.67;50.06
20889;BME280;10604;51.976;7.594;2023-04-21T08:46:29;100671.13;;;19.56;50.72
20889;BME280;10604;51.976;7.594;2023-04-21T08:48:57;100673.94;;;19.67;49.95
20889;BME280;10604;51.976;7.594;2023-04-21T08:51:22;100681.88;;;19.42;50.88
20889;BME280;10604;51.976;7.594;2023-04-21T08:53:48;100678.81;;;19.48;51.14
20889;BME280;10604;51.976;7.594;2023-04-21T08:56:13;100690.72;;;19.30;51.00
20889;BME280;10604;51.976;7.594;2023-04-21T08:58:39;100678.31;;;19.81;50.67
20889;BME280;10604;51.976;7.594;2023-04-21T09:01:05;100681.81;;;20.32;49.87
20889;BME280;10604;51.976;7.594;2023-04-21T09:03:30;100681.22;;;20.16;49.07
20889;BME280;10604;51.976;7.594;2023-04-21T09:05:59;100684.41;;;20.21;49.89
20889;BME280;10604;51.976;7.594;2023-04-21T09:08:25;100679.50;;;20.15;49.58
20889;BME280;10604;51.976;7.594;2023-04-21T09:10:52;100680.13;;;20.06;49.85
20889;BME280;10604;51.976;7.594;2023-04-21T09:13:17;100674.56;;;20.09;49.69
20889;BME280;10604;51.976;7.594;2023-04-21T09:15:44;100671.16;;;19.94;49.98
20889;BME280;10604;51.976;7.594;2023-04-21T09:18:16;100676.16;;;20.11;50.04
20889;BME280;10604;51.976;7.594;2023-04-21T09:20:42;100673.69;;;20.21;49.66
20889;BME280;10604;51.976;7.594;2023-04-21T09:23:08;100668.78;;;19.89;49.84
20889;BME280;10604;51.976;7.594;2023-04-21T09:25:33;100664.28;;;19.77;49.96
20889;BME280;10604;51.976;7.594;2023-04-21T09:27:59;100670.50;;;19.90;49.62
20889;BME280;10604;51.976;7.594;2023-04-21T09:30:24;100684.41;;;19.70;49.49
20889;BME280;10604;51.976;7.594;2023-04-21T09:32:50;100678.06;;;19.19;50.57
20889;BME280;10604;51.976;7.594;2023-04-21T09:35:20;100684.50;;;19.56;50.30
20889;BME280;10604;51.976;7.594;2023-04-21T09:37:45;100685.50;;;20.06;50.48
20889;BME280;10604;51.976;7.594;2023-04-21T09:40:13;100670.94;;;20.10;49.39
20889;BME280;10604;51.976;7.594;2023-04-21T09:42:39;100669.19;;;20.34;48.48
20889;BME280;10604;51.976;7.594;2023-04-21T09:45:05;100674.91;;;21.26;47.23
20889;BME280;10604;51.976;7.594;2023-04-21T09:47:30;100667.13;;;21.34;47.06
20889;BME280;10604;51.976;7.594;2023-04-21T09:49:57;100664.72;;;21.42;46.14
20889;BME280;10604;51.976;7.594;2023-04-21T09:52:22;100664.94;;;20.92;46.64
20889;BME280;10604;51.976;7.594;2023-04-21T09:54:49;100670.31;;;21.39;45.84
20889;BME280;10604;51.976;7.594;2023-04-21T09:57:18;100662.81;;;21.56;45.52
20889;BME280;10604;51.976;7.594;2023-04-21T09:59:44;100669.47;;;21.85;45.72
20889;BME280;10604;51.976;7.594;2023-04-21T10:02:12;100666.97;;;21.60;45.62
20889;BME280;10604;51.976;7.594;2023-04-21T10:04:37;100653.59;;;21.93;45.83
20889;BME280;10604;51.976;7.594;2023-04-21T10:07:04;100652.81;;;21.58;44.81
20889;BME280;10604;51.976;7.594;2023-04-21T10:09:32;100655.16;;;21.27;46.07
20889;BME280;10604;51.976;7.594;2023-04-21T10:11:59;100661.13;;;21.07;46.01
20889;BME280;10604;51.976;7.594;2023-04-21T10:14:25;100653.09;;;21.07;46.56
20889;BME280;10604;51.976;7.594;2023-04-21T10:17:02;100643.50;;;21.16;46.15
20889;BME280;10604;51.976;7.594;2023-04-21T10:19:28;100638.25;;;21.49;45.39
20889;BME280;10604;51.976;7.594;2023-04-21T10:21:56;100638.19;;;21.73;45.38
20889;BME280;10604;51.976;7.594;2023-04-21T10:24:27;100633.09;;;21.81;44.73
20889;BME280;10604;51.976;7.594;2023-04-21T10:26:52;100635.50;;;21.84;44.92
20889;BME280;10604;51.976;7.594;2023-04-21T10:29:27;100634.22;;;22.23;43.70
20889;BME280;10604;51.976;7.594;2023-04-21T10:31:52;100627.22;;;22.32;44.26
20889;BME280;10604;51.976;7.594;2023-04-21T10:34:27;100628.94;;;22.44;43.79
20889;BME280;10604;51.976;7.594;2023-04-21T10:44:40;100618.88;;;21.57;44.80
20889;BME280;10604;51.976;7.594;2023-04-21T10:47:06;100605.41;;;21.34;45.27
20889;BME280;10604;51.976;7.594;2023-04-21T10:49:31;100611.09;;;21.76;45.06
20889;BME280;10604;51.976;7.594;2023-04-21T10:52:02;100596.41;;;22.47;43.27
20889;BME280;10604;51.976;7.594;2023-04-21T10:57:15;100593.22;;;23.69;41.77
20889;BME280;10604;51.976;7.594;2023-04-21T10:59:40;100579.75;;;23.28;40.48
20889;BME280;10604;51.976;7.594;2023-04-21T11:02:13;100591.00;;;22.80;41.78
20889;BME280;10604;51.976;7.594;2023-04-21T11:04:38;100589.31;;;22.57;42.65
20889;BME280;10604;51.976;7.594;2023-04-21T11:07:15;100583.44;;;22.63;43.29
20889;BME280;10604;51.976;7.594;2023-04-21T11:09:41;100580.22;;;22.26;42.37
20889;BME280;10604;51.976;7.594;2023-04-21T11:12:07;100578.84;;;22.32;43.17
20889;BME280;10604;51.976;7.594;2023-04-21T11:14:33;100573.63;;;22.19;43.09
20889;BME280;10604;51.976;7.594;2023-04-21T11:17:00;100572.78;;;21.74;43.87
20889;BME280;10604;51.976;7.594;2023-04-21T11:19:25;100559.09;;;21.66;43.66
20889;BME280;10604;51.976;7.594;2023-04-21T11:21:53;100566.88;;;21.69;44.06
20889;BME280;10604;51.976;7.594;2023-04-21T11:24:22;100570.03;;;21.40;44.64
20889;BME280;10604;51.976;7.594;2023-04-21T11:26:47;100559.34;;;21.52;44.20
20889;BME280;10604;51.976;7.594;2023-04-21T11:29:13;100551.63;;;21.69;44.10
20889;BME280;10604;51.976;7.594;2023-04-21T11:31:39;100550.41;;;22.18;43.47
20889;BME280;10604;51.976;7.594;2023-04-21T11:34:05;100543.78;;;22.44;42.72
20889;BME280;10604;51.976;7.594;2023-04-21T11:36:34;100541.50;;;22.60;43.08
20889;BME280;10604;51.976;7.594;2023-04-21T11:39:03;100534.69;;;22.56;42.76
20889;BME280;10604;51.976;7.594;2023-04-21T11:41:32;100526.25;;;23.14;41.39
20889;BME280;10604;51.976;7.594;2023-04-21T11:43:57;100526.09;;;23.57;40.11
20889;BME280;10604;51.976;7.594;2023-04-21T11:46:23;100522.28;;;23.99;39.41
20889;BME280;10604;51.976;7.594;2023-04-21T11:49:01;100511.91;;;24.44;39.44
20889;BME280;10604;51.976;7.594;2023-04-21T11:51:38;100524.13;;;23.99;39.41
20889;BME280;10604;51.976;7.594;2023-04-21T11:54:05;100509.72;;;23.69;40.09
20889;BME280;10604;51.976;7.594;2023-04-21T11:56:34;100505.94;;;24.31;38.64
20889;BME280;10604;51.976;7.594;2023-04-21T11:59:00;100494.88;;;24.34;38.16
20889;BME280;10604;51.976;7.594;2023-04-21T12:01:46;100485.22;;;24.61;37.61
20889;BME280;10604;51.976;7.594;2023-04-21T12:04:16;100480.69;;;24.90;37.64
20889;BME280;10604;51.976;7.594;2023-04-21T12:06:42;100488.75;;;25.56;36.44
20889;BME280;10604;51.976;7.594;2023-04-21T12:09:07;100488.34;;;25.88;36.07
20889;BME280;10604;51.976;7.594;2023-04-21T12:11:33;100484.25;;;25.37;35.54
20889;BME280;10604;51.976;7.594;2023-04-21T12:13:58;100489.09;;;25.43;35.97
20889;BME280;10604;51.976;7.594;2023-04-21T12:16:24;100479.41;;;25.50;36.37
20889;BME280;10604;51.976;7.594;2023-04-21T12:18:53;100488.75;;;25.56;37.61
20889;BME280;10604;51.976;7.594;2023-04-21T12:21:18;100478.06;;;25.17;36.84
20889;BME280;10604;51.976;7.594;2023-04-21T12:23:43;100467.59;;;24.95;37.20
20889;BME280;10604;51.976;7.594;2023-04-21T12:26:09;100469.88;;;25.00;36.31
20889;BME280;10604;51.976;7.594;2023-04-21T12:28:34;100469.25;;;25.15;36.82
20889;BME280;10604;51.976;7.594;2023-04-21T12:31:00;100463.38;;;25.29;37.14
20889;BME280;10604;51.976;7.594;2023-04-21T12:33:25;100456.22;;;25.11;37.39
20889;BME280;10604;51.976;7.594;2023-04-21T12:35:50;100448.28;;;25.00;36.26
20889;BME280;10604;51.976;7.594;2023-04-21T12:38:16;100444.63;;;24.72;36.88
20889;BME280;10604;51.976;7.594;2023-04-21T12:40:41;100451.31;;;24.29;38.07
20889;BME280;10604;51.976;7.594;2023-04-21T12:43:06;100448.94;;;23.96;38.01
20889;BME280;10604;51.976;7.594;2023-04-21T12:45:31;100438.03;;;23.97;38.72
20889;BME280;10604;51.976;7.594;2023-04-21T12:47:57;100441.16;;;24.12;38.70
20889;BME280;10604;51.976;7.594;2023-04-21T12:50:22;100436.31;;;23.87;37.04
20889;BME280;10604;51.976;7.594;2023-04-21T12:52:47;100430.09;;;24.05;37.95
20889;BME280;10604;51.976;7.594;2023-04-21T12:55:15;100424.66;;;23.76;38.16